Terminal Aerodrome Forecast
Issued by NWS Springfield, MO

Home | Current Version | Previous Version | Text Only | Print | Product List | Glossary On
Versions: 1 2 3 4 5 6 7 8 9 10 11 12 13 14 15 16 17 18 19 20 21 22 23 24 25 26 27 28 29 30 31 32 33 34 35 36 37 38 39
000
FTUS43 KSGF 190328 AAB
TAFSGF
TAF AMD
KSGF 190328Z 1903/1924 17020G30KT P6SM OVC010 WS020/21045KT
     FM190600 17020G30KT P6SM VCSH OVC015 WS020/21055KT
     FM191200 18022G31KT P6SM -SHRA OVC020 WS020/21050KT=

USA.gov is the U.S. government's official web portal to all federal, state and local government web resources and services.